หน้าหลัก
METAR-TAF:

METAR-TAF

ท่าอากาศยาน :

Rønne, เดนมาร์ก

ละติจูด: 55-04N, ลองจิจูด: 014-45E, ความสูง: 16 ม.

การสังเกตสภาพอากาศปัจจุบัน

รายงานได้ทำขึ้นเมื่อ 35 นาทีที่แล้ว ณ เวลา 02:20 UTC
ลม 8 นอตจากตะวันตก/ตะวันตกเฉียงเหนือ
อุณหภูมิ 17°C
ความชื้น 82%
ความกดอากาศ 1013 hPa
ทัศนวิสัย 10 กม. หรือมากกว่า

METAR: EKRN 250220Z AUTO 30008KT 9999 BKN042/// 17/14 Q1013

เวลา: 04:55 (02:55 UTC)

การพยากรณ์

รายงานได้ทำขึ้นเมื่อ 34 นาทีที่แล้ว ณ เวลา 02:21 UTC
การพยากรณ์มีผลตั้งแต่วันที่ 25 ณ เวลา 03 UTC จนถึงวันที่ 25 ณ เวลา 12 UTC
ลม 12 นอตจากตะวันตก
ทัศนวิสัย 10 กม. หรือมากกว่า
มีเมฆกระจายเป็นบางส่วนที่ความสูง 2000 ฟุต

TAF: EKRN 250221Z 2503/2512 28012KT 9999 SCT020

สังเกตการณ์สภาพอากาศและพยากรณ์อากาศของสนามบินมากกว่า 4000 แห่ง (รายงาน METAR และ TAF).

สถานีที่ดูได้จะแสดงไว้ด้วยจุดสีเหลืองและสีแดงบนแผนที่.

เลื่อนเมาส์ไปเหนือจุดเพื่อดูชื่อสถานี.

แล้วคลิกเพื่อดูสังเกตการณ์และการพยากรณ์สภาพอากาศ.

ในการเปลี่ยนแผนที่: คลิกที่ปุ่มสีเขียวที่มีกากบาทสีดำเพื่อซูมเข้า; ที่ปุ่มสีเขียวที่มีขีดเพื่อซูมออก; หรือที่ลูกศรสีเขียวเพื่อไปยังแผนที่ที่อยู่ติดกัน.


METAR-TAF: